Time;durP1;ratioP1;P1;durP2;ratioP2;P2;SDS_P1;SDS_P2;PMS_P1;PMS_P2;Temp;Humidity;BMP_temperature;BMP_pressure;BME280_temperature;BME280_humidity;BME280_pressure;Samples;Min_cycle;Max_cycle;Signal;HPM_P1;HPM_P2
2022/08/06 00:01:51;;;;;;;19.40;15.00;;;;;;;23.55;59.14;100110.50;5055780;28;20139;-61
2022/08/06 00:04:18;;;;;;;19.40;14.43;;;;;;;23.51;59.62;100123.06;5048333;28;20087;-60
2022/08/06 00:06:43;;;;;;;17.42;14.68;;;;;;;23.54;59.26;100120.22;5073121;28;20017;-60
2022/08/06 00:09:11;;;;;;;16.98;15.13;;;;;;;23.54;59.38;100114.09;5063559;28;20092;-60
2022/08/06 00:11:38;;;;;;;20.83;15.45;;;;;;;23.45;59.75;100110.28;5046472;28;20333;-60
2022/08/06 00:14:04;;;;;;;17.75;14.95;;;;;;;23.47;59.91;100121.59;5046130;28;20029;-61
2022/08/06 00:16:30;;;;;;;15.57;14.00;;;;;;;23.34;60.23;100105.72;5059746;28;20033;-60
2022/08/06 00:18:55;;;;;;;17.90;14.60;;;;;;;23.38;60.31;100120.41;5062221;28;20056;-61
2022/08/06 00:21:21;;;;;;;17.92;14.48;;;;;;;23.34;60.64;100116.28;5061549;28;20078;-60
2022/08/06 00:23:47;;;;;;;18.13;14.85;;;;;;;23.25;60.40;100104.53;5062753;28;20186;-61
2022/08/06 00:26:12;;;;;;;17.98;15.30;;;;;;;23.24;61.49;100121.38;5062454;28;20033;-61
2022/08/06 00:28:38;;;;;;;18.13;14.32;;;;;;;23.22;61.79;100119.78;5061875;28;20142;-61
2022/08/06 00:31:05;;;;;;;18.55;14.77;;;;;;;23.19;61.44;100126.13;5060035;28;20025;-61
2022/08/06 00:33:30;;;;;;;16.92;15.30;;;;;;;23.16;61.92;100118.41;5062948;28;20021;-60
2022/08/06 00:35:56;;;;;;;16.02;14.35;;;;;;;23.04;62.01;100112.09;5062725;28;20047;-61
2022/08/06 00:38:22;;;;;;;16.75;15.18;;;;;;;23.12;62.07;100124.84;5062600;28;20281;-61
2022/08/06 00:40:49;;;;;;;16.25;14.52;;;;;;;23.14;61.84;100117.63;5062821;28;20032;-61
2022/08/06 00:43:15;;;;;;;18.17;15.60;;;;;;;23.05;62.66;100127.00;5062705;28;20017;-61
2022/08/06 00:45:41;;;;;;;17.35;15.70;;;;;;;23.04;62.42;100121.81;5060190;28;20025;-61
2022/08/06 00:48:06;;;;;;;19.75;15.55;;;;;;;23.03;62.86;100120.13;5062641;28;20076;-61
2022/08/06 00:50:33;;;;;;;17.67;15.27;;;;;;;22.93;63.21;100110.19;5061697;28;20024;-61
2022/08/06 00:53:00;;;;;;;15.68;14.18;;;;;;;22.98;63.03;100116.94;5051525;28;20025;-61
2022/08/06 00:55:25;;;;;;;17.98;15.00;;;;;;;23.02;62.84;100124.56;5066892;28;20199;-61
2022/08/06 00:57:51;;;;;;;19.98;15.38;;;;;;;23.01;62.36;100124.66;5043261;28;20036;-61
2022/08/06 01:00:17;;;;;;;17.52;14.75;;;;;;;23.03;62.74;100128.03;5081425;28;20092;-61
2022/08/06 01:02:42;;;;;;;17.83;14.88;;;;;;;23.02;62.78;100127.22;5082910;28;20190;-61
2022/08/06 01:05:08;;;;;;;18.48;15.50;;;;;;;23.03;62.90;100128.03;5071291;28;20066;-61
2022/08/06 01:07:34;;;;;;;17.15;15.45;;;;;;;23.01;62.72;100125.50;5062929;28;20052;-61
2022/08/06 01:09:59;;;;;;;17.70;15.85;;;;;;;22.96;63.21;100129.41;5062851;28;20048;-61
2022/08/06 01:12:29;;;;;;;21.55;15.70;;;;;;;22.87;63.82;100123.81;5062987;28;20024;-61
2022/08/06 01:14:54;;;;;;;21.33;16.98;;;;;;;22.76;63.80;100139.50;5062630;28;20092;-60
2022/08/06 01:17:59;;;;;;;17.38;15.30;;;;;;;22.93;62.97;100126.03;5050543;28;20029;-61
2022/08/06 01:21:00;;;;;;;20.75;15.55;;;;;;;22.92;63.86;100134.06;5066198;28;20103;-60
2022/08/06 01:23:29;;;;;;;18.40;16.45;;;;;;;22.88;63.07;100136.03;5064710;28;20040;-61
2022/08/06 01:26:13;;;;;;;17.83;15.10;;;;;;;22.96;63.21;100145.25;5068167;28;20035;-61
2022/08/06 01:28:49;;;;;;;18.88;16.77;;;;;;;22.93;63.31;100135.72;5068907;28;20116;-61
2022/08/06 01:31:32;;;;;;;24.02;18.05;;;;;;;22.83;62.69;100146.06;5057011;28;20253;-61
2022/08/06 01:34:03;;;;;;;18.27;16.00;;;;;;;22.62;62.57;100099.91;5065284;28;20032;-60
2022/08/06 01:36:53;;;;;;;19.35;16.08;;;;;;;22.93;62.96;100141.88;5066291;28;20048;-61
2022/08/06 01:39:23;;;;;;;21.27;15.50;;;;;;;22.70;62.96;100102.91;5066146;28;20056;-60
2022/08/06 01:41:52;;;;;;;17.75;15.85;;;;;;;22.88;62.99;100137.84;5081158;28;20032;-60
2022/08/06 01:44:21;;;;;;;23.83;17.27;;;;;;;22.73;62.89;100144.97;5086417;28;20091;-61
2022/08/06 01:46:51;;;;;;;20.77;17.00;;;;;;;22.83;63.12;100150.50;5071277;28;20048;-60
2022/08/06 01:49:22;;;;;;;18.98;17.02;;;;;;;22.91;62.73;100145.56;5066083;28;20025;-60
2022/08/06 01:51:51;;;;;;;21.20;15.93;;;;;;;22.88;63.02;100132.56;5066050;28;20029;-60
2022/08/06 01:54:19;;;;;;;18.73;16.13;;;;;;;22.91;63.14;100149.03;5065930;28;20383;-60
2022/08/06 01:56:49;;;;;;;23.08;17.48;;;;;;;22.92;62.85;100158.66;5080163;28;20048;-61
2022/08/06 01:59:19;;;;;;;24.15;17.77;;;;;;;22.87;62.99;100136.13;5065843;28;20032;-61
2022/08/06 02:01:49;;;;;;;20.88;15.95;;;;;;;22.89;62.65;100140.38;5050196;28;20044;-60
2022/08/06 02:04:17;;;;;;;18.15;15.85;;;;;;;22.90;63.41;100150.00;5045773;28;20325;-60
2022/08/06 02:06:46;;;;;;;24.17;18.48;;;;;;;22.77;63.53;100143.81;5028211;28;20044;-60
2022/08/06 02:09:16;;;;;;;19.77;16.35;;;;;;;22.62;63.21;100100.78;5045837;28;20344;-60
2022/08/06 02:11:44;;;;;;;22.25;19.77;;;;;;;22.43;63.46;100101.09;5059448;28;20120;-61
2022/08/06 02:14:12;;;;;;;29.65;18.98;;;;;;;22.70;63.64;100140.75;5074881;28;20040;-61
2022/08/06 02:16:41;;;;;;;21.83;19.00;;;;;;;22.70;64.16;100145.16;5075876;28;20029;-61
2022/08/06 02:19:09;;;;;;;20.63;18.35;;;;;;;22.54;63.55;100101.25;5045506;28;20029;-61
2022/08/06 02:21:36;;;;;;;23.00;18.25;;;;;;;22.73;64.07;100145.81;5045617;28;20028;-61
2022/08/06 02:24:06;;;;;;;20.05;17.08;;;;;;;22.47;63.32;100096.50;5045603;28;20049;-61
2022/08/06 02:26:34;;;;;;;23.55;18.40;;;;;;;22.77;63.98;100146.44;5045529;28;20065;-61
2022/08/06 02:29:05;;;;;;;21.05;18.63;;;;;;;22.75;64.32;100153.66;5055559;28;20032;-61
2022/08/06 02:31:32;;;;;;;21.23;17.00;;;;;;;22.77;64.63;100149.09;5065466;28;20113;-61
2022/08/06 02:33:58;;;;;;;18.48;16.20;;;;;;;22.80;64.65;100151.53;5065256;28;20033;-61
2022/08/06 02:36:38;;;;;;;22.48;17.17;;;;;;;22.78;64.96;100155.25;5064998;28;20028;-61
2022/08/06 02:39:13;;;;;;;19.83;17.35;;;;;;;22.75;65.64;100156.28;5065137;28;20116;-61
2022/08/06 02:41:52;;;;;;;22.95;19.15;;;;;;;22.67;65.31;100151.47;5078380;28;20264;-61
2022/08/06 02:44:34;;;;;;;19.83;17.02;;;;;;;22.82;65.15;100154.94;5078129;28;20205;-61
2022/08/06 02:47:06;;;;;;;22.77;18.20;;;;;;;22.86;64.73;100161.72;5048667;28;20385;-61
2022/08/06 02:49:35;;;;;;;20.45;16.92;;;;;;;22.77;64.79;100133.25;5064447;28;20225;-61
2022/08/06 02:52:11;;;;;;;20.25;17.25;;;;;;;22.63;65.23;100102.47;5065037;28;20021;-61
2022/08/06 02:55:02;;;;;;;21.30;16.98;;;;;;;22.92;65.70;100144.63;5050920;28;20203;-61
2022/08/06 02:57:36;;;;;;;21.50;17.30;;;;;;;22.90;64.96;100144.72;5042530;28;20053;-61
2022/08/06 03:00:07;;;;;;;20.17;18.08;;;;;;;22.71;65.24;100109.91;5059611;28;20021;-61
2022/08/06 03:02:36;;;;;;;22.00;17.05;;;;;;;23.01;65.09;100172.22;5063618;28;20037;-61
2022/08/06 03:05:06;;;;;;;24.38;19.15;;;;;;;22.86;65.69;100155.56;5064571;28;20131;-61
2022/08/06 03:07:33;;;;;;;22.45;19.55;;;;;;;22.89;65.50;100153.59;5061533;28;20029;-61
2022/08/06 03:10:01;;;;;;;21.65;17.35;;;;;;;23.00;65.81;100154.66;5044609;28;20029;-61
2022/08/06 03:12:30;;;;;;;20.73;18.52;;;;;;;22.68;66.50;100158.47;5084339;28;20032;-60
2022/08/06 03:15:01;;;;;;;22.27;18.80;;;;;;;22.88;65.79;100167.72;5084438;28;20087;-61
2022/08/06 03:17:32;;;;;;;19.70;17.00;;;;;;;22.73;66.01;100111.50;5073953;28;20025;-61
2022/08/06 03:20:01;;;;;;;20.30;18.30;;;;;;;22.96;65.86;100163.75;5057090;28;20029;-61
2022/08/06 03:22:31;;;;;;;21.45;18.48;;;;;;;22.75;65.64;100114.03;5046055;28;20067;-59
2022/08/06 03:24:58;;;;;;;20.27;18.15;;;;;;;22.90;66.08;100149.13;5064318;28;20092;-60
2022/08/06 03:27:25;;;;;;;25.08;19.23;;;;;;;22.82;66.48;100167.31;5045509;28;20064;-60
2022/08/06 03:29:51;;;;;;;23.08;19.10;;;;;;;22.81;66.32;100150.59;5061191;28;20214;-60
2022/08/06 03:32:18;;;;;;;20.80;16.70;;;;;;;23.12;65.58;100158.34;5064034;28;20063;-61
2022/08/06 03:34:45;;;;;;;20.55;17.98;;;;;;;23.15;66.12;100155.50;5060931;28;20022;-60
2022/08/06 03:37:12;;;;;;;23.88;18.08;;;;;;;23.20;65.47;100158.66;5063613;28;20044;-61
2022/08/06 03:39:41;;;;;;;19.90;17.90;;;;;;;23.18;65.93;100156.13;5044069;28;20041;-61
2022/08/06 03:42:07;;;;;;;19.83;17.73;;;;;;;23.30;65.46;100156.25;5055241;28;20017;-61
2022/08/06 03:44:33;;;;;;;21.00;16.60;;;;;;;23.36;65.32;100143.47;5062289;28;20366;-60
2022/08/06 03:47:05;;;;;;;22.98;18.35;;;;;;;23.47;65.43;100148.03;5067243;28;20037;-60
2022/08/06 03:49:48;;;;;;;24.95;18.17;;;;;;;23.31;65.10;100113.03;5063889;28;20029;-60
2022/08/06 03:52:18;;;;;;;18.95;16.35;;;;;;;23.60;65.00;100148.91;5064616;28;20040;-61
2022/08/06 03:54:49;;;;;;;23.08;16.23;;;;;;;23.40;64.94;100109.75;5075973;28;20071;-60
2022/08/06 03:57:19;;;;;;;22.35;16.58;;;;;;;23.70;65.38;100166.75;5081250;28;20031;-61
2022/08/06 03:59:48;;;;;;;19.35;17.35;;;;;;;23.50;65.03;100120.53;5056045;28;20088;-61
2022/08/06 04:02:15;;;;;;;24.08;17.63;;;;;;;23.76;64.89;100164.56;5043679;28;20026;-60
2022/08/06 04:04:42;;;;;;;21.23;16.73;;;;;;;23.80;64.73;100159.91;5042766;28;20025;-60
2022/08/06 04:07:09;;;;;;;19.73;16.45;;;;;;;23.84;64.53;100156.06;5043813;28;20029;-60
2022/08/06 04:09:35;;;;;;;18.60;16.55;;;;;;;23.84;64.61;100155.22;5043770;28;20025;-60
2022/08/06 04:12:03;;;;;;;23.75;17.48;;;;;;;23.56;64.42;100105.09;5057651;28;20051;-61
2022/08/06 04:14:30;;;;;;;21.85;18.55;;;;;;;23.83;65.25;100172.91;5074356;28;20273;-61
2022/08/06 04:16:58;;;;;;;22.65;19.88;;;;;;;23.59;65.73;100165.72;5070300;28;20043;-61
2022/08/06 04:19:24;;;;;;;22.33;18.30;;;;;;;23.65;65.73;100175.03;5042856;28;20085;-61
2022/08/06 04:21:49;;;;;;;21.25;18.83;;;;;;;23.74;65.58;100163.81;5043502;28;20037;-61
2022/08/06 04:24:15;;;;;;;22.27;17.55;;;;;;;23.93;65.19;100158.13;5059250;28;20225;-61
2022/08/06 04:26:44;;;;;;;21.20;18.70;;;;;;;23.82;65.33;100175.69;5076101;28;20028;-61
2022/08/06 04:29:15;;;;;;;17.65;15.77;;;;;;;23.78;64.14;100119.47;5057929;28;20418;-61
2022/08/06 04:31:44;;;;;;;20.63;18.53;;;;;;;24.05;65.21;100168.81;5055710;28;20317;-60
2022/08/06 04:34:12;;;;;;;20.92;17.55;;;;;;;23.74;65.02;100116.22;5054794;28;20052;-61
2022/08/06 04:36:38;;;;;;;21.08;17.50;;;;;;;24.12;65.07;100162.97;5063007;28;20031;-61
2022/08/06 04:39:04;;;;;;;21.33;17.33;;;;;;;24.27;64.64;100160.16;5063097;28;20025;-61
2022/08/06 04:41:31;;;;;;;19.80;17.75;;;;;;;24.27;65.16;100163.69;5071883;28;20350;-61
2022/08/06 04:43:57;;;;;;;18.27;16.48;;;;;;;24.27;64.79;100162.81;5070590;28;20097;-61
2022/08/06 04:46:23;;;;;;;18.58;16.75;;;;;;;24.39;64.43;100161.13;5041912;28;20021;-61
2022/08/06 04:48:49;;;;;;;21.63;16.90;;;;;;;24.33;64.91;100164.19;5041995;28;20028;-61
2022/08/06 04:51:15;;;;;;;19.30;16.33;;;;;;;24.48;64.31;100171.03;5042063;28;20214;-61
2022/08/06 04:53:42;;;;;;;19.98;17.30;;;;;;;24.57;64.58;100164.22;5067739;28;20048;-61
2022/08/06 04:56:09;;;;;;;20.23;16.77;;;;;;;24.49;64.70;100158.66;5055988;28;20022;-60
2022/08/06 04:58:35;;;;;;;19.30;16.98;;;;;;;24.78;64.29;100159.19;5043457;28;20018;-61
2022/08/06 05:01:01;;;;;;;20.98;16.13;;;;;;;24.70;64.47;100153.59;5047332;28;20021;-61
2022/08/06 05:03:28;;;;;;;16.70;14.95;;;;;;;25.04;63.86;100156.41;5047164;28;20017;-60
2022/08/06 05:06:12;;;;;;;17.00;15.35;;;;;;;25.51;63.04;100154.69;5074944;28;20031;-61
2022/08/06 05:08:41;;;;;;;16.38;14.68;;;;;;;25.63;61.19;100111.28;5075289;28;20028;-61
2022/08/06 05:11:18;;;;;;;16.13;13.60;;;;;;;26.41;59.82;100155.66;5059277;28;20253;-61
2022/08/06 05:13:46;;;;;;;15.63;14.02;;;;;;;26.47;58.70;100118.84;5055173;28;20024;-60
2022/08/06 05:16:14;;;;;;;15.80;13.68;;;;;;;26.52;58.49;100115.78;5071400;28;20272;-61
2022/08/06 05:18:50;;;;;;;16.70;13.68;;;;;;;26.21;58.95;100109.47;5047573;28;20022;-61
2022/08/06 05:21:23;;;;;;;18.30;14.48;;;;;;;26.43;59.27;100154.59;5046933;28;20097;-61
2022/08/06 05:23:53;;;;;;;21.02;14.07;;;;;;;25.93;59.90;100116.97;5073075;28;20034;-61
2022/08/06 05:26:19;;;;;;;14.88;12.73;;;;;;;26.49;59.60;100163.88;5086858;28;20028;-60
2022/08/06 05:28:45;;;;;;;16.55;12.95;;;;;;;26.60;59.42;100158.53;5078673;28;20020;-60
2022/08/06 05:31:11;;;;;;;17.48;13.18;;;;;;;26.59;58.92;100161.31;5066542;28;20039;-60
2022/08/06 05:33:38;;;;;;;24.65;13.52;;;;;;;26.73;59.43;100155.75;5066389;28;20024;-60
2022/08/06 05:36:07;;;;;;;15.60;12.50;;;;;;;26.81;58.96;100168.44;5065986;28;20043;-60
2022/08/06 05:38:36;;;;;;;17.02;12.27;;;;;;;26.47;58.57;100120.66;5075773;28;20048;-60
2022/08/06 05:41:02;;;;;;;18.17;13.75;;;;;;;26.56;58.73;100158.91;5072096;28;20322;-61
2022/08/06 05:43:28;;;;;;;16.52;14.50;;;;;;;26.47;58.59;100155.19;5048852;28;20032;-60
2022/08/06 05:46:00;;;;;;;14.43;12.93;;;;;;;26.52;59.27;100164.47;5078849;28;20017;-60
2022/08/06 05:48:31;;;;;;;14.43;12.98;;;;;;;26.78;58.93;100153.56;5066211;28;20032;-60
2022/08/06 05:51:08;;;;;;;16.98;14.23;;;;;;;26.49;58.16;100116.91;5080333;28;20028;-60
2022/08/06 05:53:40;;;;;;;19.85;14.43;;;;;;;26.82;58.84;100162.13;5086033;28;20085;-60
2022/08/06 05:56:31;;;;;;;16.13;13.50;;;;;;;27.03;58.40;100156.84;5061021;28;20306;-60
2022/08/06 05:59:06;;;;;;;18.55;14.10;;;;;;;26.69;58.18;100107.34;5057297;28;20029;-60
2022/08/06 06:01:34;;;;;;;15.38;12.80;;;;;;;27.04;57.71;100143.41;5086158;28;20029;-60
2022/08/06 06:04:00;;;;;;;18.50;12.85;;;;;;;27.09;57.85;100144.84;5085891;28;20020;-61
2022/08/06 06:06:26;;;;;;;13.90;12.43;;;;;;;27.14;58.85;100155.97;5085936;28;20033;-60
2022/08/06 06:08:52;;;;;;;16.67;12.43;;;;;;;27.22;58.55;100150.81;5072582;28;20051;-61
2022/08/06 06:11:19;;;;;;;16.38;12.95;;;;;;;27.17;58.04;100159.19;5072730;28;20024;-60
2022/08/06 06:13:46;;;;;;;14.25;12.73;;;;;;;27.06;57.83;100158.41;5081798;28;20090;-60
2022/08/06 06:16:24;;;;;;;17.42;12.77;;;;;;;27.11;58.42;100153.56;5065466;28;20064;-60
2022/08/06 06:19:11;;;;;;;19.85;13.77;;;;;;;27.19;58.44;100154.59;5065715;28;20028;-60
2022/08/06 06:21:56;;;;;;;14.25;12.52;;;;;;;27.18;57.78;100154.75;5065530;28;20347;-60
2022/08/06 06:24:53;;;;;;;13.73;12.02;;;;;;;27.25;56.33;100152.38;5065523;28;20021;-60
2022/08/06 06:27:37;;;;;;;13.48;12.18;;;;;;;27.32;56.51;100141.13;5065673;28;20021;-60
2022/08/06 06:30:06;;;;;;;12.18;10.80;;;;;;;27.39;56.34;100146.78;5065337;28;20029;-60
2022/08/06 06:32:53;;;;;;;18.00;11.68;;;;;;;27.49;56.39;100145.03;5064979;28;20225;-60
2022/08/06 06:35:33;;;;;;;12.50;10.27;;;;;;;27.59;56.30;100139.75;5065128;28;20052;-60
2022/08/06 06:38:20;;;;;;;16.80;11.20;;;;;;;27.65;55.96;100141.03;5065102;28;20353;-60
2022/08/06 06:40:58;;;;;;;14.30;11.23;;;;;;;27.38;56.23;100094.56;5060231;28;20297;-60
2022/08/06 06:43:39;;;;;;;14.20;11.65;;;;;;;27.63;55.15;100133.19;5045118;28;20033;-61
2022/08/06 06:46:29;;;;;;;13.85;11.40;;;;;;;27.80;55.86;100128.22;5045094;28;20025;-60
2022/08/06 06:49:07;;;;;;;14.70;11.38;;;;;;;27.42;55.85;100095.97;5045140;28;20033;-60
2022/08/06 06:51:48;;;;;;;17.25;11.45;;;;;;;27.58;54.94;100123.91;5043894;28;20067;-60
2022/08/06 06:54:27;;;;;;;19.35;11.32;;;;;;;27.80;54.30;100133.56;5060523;28;20092;-60
2022/08/06 06:56:56;;;;;;;16.60;10.95;;;;;;;27.81;55.00;100105.97;5077818;28;20025;-60
2022/08/06 06:59:32;;;;;;;13.93;11.90;;;;;;;27.83;54.84;100119.97;5067521;28;20029;-60
2022/08/06 07:01:59;;;;;;;13.85;10.35;;;;;;;28.05;56.37;100127.81;5055614;28;20262;-61
2022/08/06 07:04:28;;;;;;;18.05;10.88;;;;;;;27.80;54.72;100097.13;5082710;28;20324;-60
2022/08/06 07:06:57;;;;;;;17.35;10.65;;;;;;;28.18;54.29;100126.72;5083444;28;20040;-60
2022/08/06 07:09:25;;;;;;;13.60;10.98;;;;;;;28.14;54.93;100093.34;5067608;28;20043;-60
2022/08/06 07:11:55;;;;;;;11.50;10.32;;;;;;;28.15;54.08;100093.19;5051929;28;20093;-60
2022/08/06 07:14:24;;;;;;;12.57;10.52;;;;;;;28.32;54.34;100085.50;5044760;28;20249;-60
2022/08/06 07:16:55;;;;;;;12.32;10.30;;;;;;;28.47;53.65;100123.28;5044440;28;20049;-60
2022/08/06 07:19:23;;;;;;;13.35;9.80;;;;;;;28.52;53.62;100127.22;5044766;28;20052;-60
2022/08/06 07:21:50;;;;;;;13.73;9.57;;;;;;;28.67;53.29;100133.00;5043716;28;20047;-60
2022/08/06 07:24:17;;;;;;;11.23;9.88;;;;;;;28.65;52.18;100129.63;5044235;28;20044;-60
2022/08/06 07:26:44;;;;;;;12.88;9.70;;;;;;;28.73;52.39;100124.47;5066981;28;20024;-64
2022/08/06 07:29:12;;;;;;;11.70;9.65;;;;;;;28.60;52.57;100083.84;5078567;28;20025;-61
2022/08/06 07:31:40;;;;;;;11.70;9.52;;;;;;;28.81;51.33;100122.91;5084177;28;20028;-61
2022/08/06 07:34:06;;;;;;;15.63;9.20;;;;;;;28.74;51.74;100115.44;5084243;28;20025;-60
2022/08/06 07:36:36;;;;;;;13.02;8.57;;;;;;;28.67;51.86;100105.50;5047772;28;20096;-62
2022/08/06 07:39:08;;;;;;;11.18;8.57;;;;;;;28.99;51.91;100120.38;5043787;28;20037;-60
2022/08/06 07:41:35;;;;;;;10.90;8.60;;;;;;;28.97;49.36;100117.84;5064090;28;20032;-60
2022/08/06 07:44:03;;;;;;;10.25;8.35;;;;;;;29.06;50.44;100106.34;5072853;28;20025;-60
2022/08/06 07:46:34;;;;;;;12.48;8.50;;;;;;;28.89;49.82;100072.41;5043624;28;20256;-61
2022/08/06 07:49:03;;;;;;;13.40;8.95;;;;;;;29.12;49.23;100110.25;5060544;28;20025;-60
2022/08/06 07:51:33;;;;;;;8.85;7.95;;;;;;;29.15;49.82;100093.97;5063038;28;20027;-61
2022/08/06 07:54:02;;;;;;;10.05;8.23;;;;;;;29.30;49.28;100113.03;5050524;28;20029;-61
2022/08/06 07:56:28;;;;;;;9.95;8.93;;;;;;;29.21;48.68;100112.06;5063799;28;20024;-61
2022/08/06 07:58:55;;;;;;;8.85;8.05;;;;;;;29.36;48.60;100104.47;5059103;28;20053;-60
2022/08/06 08:01:22;;;;;;;9.85;8.02;;;;;;;29.47;48.69;100102.63;5043941;28;20041;-60
2022/08/06 08:06:34;;;;;;;11.68;8.20;;;;;;;29.44;48.06;100104.59;5079862;28;20032;-61
2022/08/06 08:09:16;;;;;;;13.35;8.63;;;;;;;29.51;48.31;100106.69;5070131;28;20047;-62
2022/08/06 08:11:44;;;;;;;8.82;7.88;;;;;;;29.59;48.43;100104.13;5063508;28;20046;-60
2022/08/06 08:14:11;;;;;;;10.10;7.22;;;;;;;29.52;47.14;100114.53;5063045;28;20025;-62
2022/08/06 08:16:40;;;;;;;12.18;8.10;;;;;;;29.47;46.97;100103.44;5061358;28;20033;-60
2022/08/06 08:19:32;;;;;;;10.05;8.20;;;;;;;29.67;47.48;100103.41;5043505;28;20025;-60
2022/08/06 08:22:18;;;;;;;10.73;7.70;;;;;;;29.62;47.90;100069.13;5043494;28;20029;-61
2022/08/06 08:24:46;;;;;;;9.02;7.25;;;;;;;29.70;47.29;100109.28;5062123;28;20092;-61
2022/08/06 08:27:12;;;;;;;8.45;7.57;;;;;;;29.76;46.71;100100.69;5063102;28;20025;-60
2022/08/06 08:29:39;;;;;;;10.20;7.72;;;;;;;29.63;46.30;100110.88;5060137;28;20017;-60
2022/08/06 08:32:06;;;;;;;11.52;7.80;;;;;;;29.50;46.55;100064.97;5057439;28;20035;-60
2022/08/06 08:34:32;;;;;;;10.75;8.27;;;;;;;29.86;47.17;100099.81;5043238;28;20026;-60
2022/08/06 08:36:59;;;;;;;10.02;8.13;;;;;;;29.91;46.88;100101.06;5057194;28;20064;-60
2022/08/06 08:39:27;;;;;;;10.77;8.27;;;;;;;29.92;47.18;100101.91;5079658;28;20404;-60
2022/08/06 08:42:06;;;;;;;13.88;7.57;;;;;;;29.78;45.98;100060.47;5058889;28;20045;-61
2022/08/06 08:44:33;;;;;;;12.52;8.48;;;;;;;29.98;46.37;100095.97;5061647;28;20032;-60
2022/08/06 08:47:00;;;;;;;11.18;8.05;;;;;;;30.15;46.24;100106.88;5071365;28;20024;-61
2022/08/06 08:49:40;;;;;;;9.63;8.20;;;;;;;30.38;46.52;100094.75;5059851;28;20037;-61
2022/08/06 08:52:21;;;;;;;11.32;7.72;;;;;;;30.54;46.18;100090.59;5043121;28;20033;-61
2022/08/06 08:54:50;;;;;;;10.15;7.50;;;;;;;30.67;45.68;100090.19;5054243;28;20049;-61
2022/08/06 08:57:17;;;;;;;13.30;7.70;;;;;;;30.76;44.85;100090.13;5059877;28;20020;-61
2022/08/06 08:59:43;;;;;;;8.27;7.47;;;;;;;30.87;44.32;100082.84;5062280;28;20025;-62
2022/08/06 09:02:13;;;;;;;15.07;7.45;;;;;;;30.78;44.55;100081.94;5056721;28;20056;-63
2022/08/06 09:04:40;;;;;;;13.32;7.50;;;;;;;30.86;43.72;100065.97;5050307;28;20029;-61
2022/08/06 09:07:08;;;;;;;8.35;7.25;;;;;;;30.86;43.32;100041.06;5061464;28;20071;-61
2022/08/06 09:09:34;;;;;;;12.18;9.50;;;;;;;31.10;43.08;100077.88;5061089;28;20063;-63
2022/08/06 09:12:01;;;;;;;8.85;7.45;;;;;;;31.09;43.34;100078.88;5048413;28;20360;-62
2022/08/06 09:14:26;;;;;;;10.07;8.10;;;;;;;31.21;43.78;100084.78;5049997;28;20036;-61
2022/08/06 09:16:52;;;;;;;8.68;7.82;;;;;;;31.10;44.56;100068.00;5061148;28;20269;-61
2022/08/06 09:19:18;;;;;;;9.50;7.68;;;;;;;30.72;44.28;100080.72;5062698;28;20091;-62
2022/08/06 09:21:44;;;;;;;9.55;7.18;;;;;;;30.60;44.37;100068.59;5061197;28;20025;-61
2022/08/06 09:24:10;;;;;;;9.20;7.75;;;;;;;30.26;44.64;100077.25;5062780;28;20322;-61
2022/08/06 09:26:36;;;;;;;7.88;7.10;;;;;;;30.60;44.11;100081.97;5053221;28;20245;-61
2022/08/06 09:29:14;;;;;;;11.85;7.50;;;;;;;30.73;43.98;100078.91;5053057;28;20035;-62
2022/08/06 09:31:40;;;;;;;8.10;7.30;;;;;;;30.81;44.45;100073.59;5064189;28;20033;-61
2022/08/06 09:34:06;;;;;;;9.57;7.20;;;;;;;30.64;44.00;100077.97;5083022;28;20028;-62
2022/08/06 09:36:43;;;;;;;8.93;6.82;;;;;;;30.61;43.83;100075.59;5048168;28;20040;-62
2022/08/06 09:39:09;;;;;;;10.55;7.65;;;;;;;30.50;43.98;100074.03;5069129;28;20032;-61
2022/08/06 09:41:45;;;;;;;8.60;7.65;;;;;;;30.28;44.05;100037.84;5063932;28;20108;-61
2022/08/06 09:44:11;;;;;;;12.43;8.07;;;;;;;30.40;44.30;100068.72;5052299;28;20032;-62
2022/08/06 09:46:41;;;;;;;10.93;7.30;;;;;;;30.33;44.28;100066.78;5061119;28;20024;-61
2022/08/06 09:49:09;;;;;;;8.27;7.50;;;;;;;30.45;44.76;100063.75;5060070;28;20056;-61
2022/08/06 09:51:35;;;;;;;15.65;11.57;;;;;;;30.54;44.86;100063.84;5063724;28;20031;-61
2022/08/06 09:54:03;;;;;;;11.85;8.30;;;;;;;30.49;45.00;100028.72;5064680;28;20218;-62
2022/08/06 09:56:28;;;;;;;10.30;7.28;;;;;;;30.71;43.62;100054.97;5064881;28;20041;-62
2022/08/06 09:59:05;;;;;;;10.25;7.78;;;;;;;30.66;43.75;100019.84;5063676;28;20276;-61
2022/08/06 10:01:44;;;;;;;8.70;7.10;;;;;;;30.95;43.36;100053.47;5062004;28;20029;-61
2022/08/06 10:04:23;;;;;;;11.60;7.20;;;;;;;31.12;43.15;100062.50;5063221;28;20017;-61
2022/08/06 10:06:54;;;;;;;10.32;7.28;;;;;;;30.93;42.97;100023.38;5045602;28;20099;-61
2022/08/06 10:09:20;;;;;;;12.07;7.43;;;;;;;31.20;42.96;100049.16;5061049;28;20028;-61
2022/08/06 10:11:46;;;;;;;9.98;7.63;;;;;;;31.31;43.14;100050.72;5062830;28;20064;-61
2022/08/06 10:14:26;;;;;;;9.73;7.13;;;;;;;31.40;42.77;100056.97;5069811;28;20020;-62
2022/08/06 10:17:12;;;;;;;11.35;7.05;;;;;;;31.39;41.99;100048.09;5054917;28;20031;-62
2022/08/06 10:19:41;;;;;;;11.52;6.95;;;;;;;31.23;42.18;100007.88;5055893;28;20047;-61
2022/08/06 10:22:17;;;;;;;10.80;7.78;;;;;;;31.47;42.84;100045.47;5082124;28;20048;-61
2022/08/06 10:24:44;;;;;;;7.88;7.10;;;;;;;31.60;42.36;100039.69;5081739;28;20087;-62
2022/08/06 10:27:19;;;;;;;11.20;7.75;;;;;;;31.39;41.31;100012.47;5084114;28;20133;-61
2022/08/06 10:29:50;;;;;;;8.68;7.40;;;;;;;31.44;40.95;100036.91;5070236;28;20048;-61
2022/08/06 10:32:28;;;;;;;11.50;7.63;;;;;;;31.47;40.59;100029.41;5072991;28;20032;-61
2022/08/06 10:34:57;;;;;;;10.07;7.35;;;;;;;31.27;40.82;100010.06;5085716;28;20024;-61
2022/08/06 10:37:23;;;;;;;10.68;7.82;;;;;;;31.52;41.32;100025.41;5066068;28;20051;-61
2022/08/06 10:39:56;;;;;;;10.68;7.72;;;;;;;31.01;40.64;99993.19;5065470;28;20029;-62
2022/08/06 10:42:23;;;;;;;8.05;7.22;;;;;;;31.27;41.67;99985.13;5054081;28;20040;-61
2022/08/06 10:44:50;;;;;;;10.32;7.53;;;;;;;31.61;42.22;100019.09;5045171;28;20032;-61
2022/08/06 10:47:17;;;;;;;13.20;8.05;;;;;;;31.53;41.19;100016.38;5045067;28;20310;-61
2022/08/06 10:49:44;;;;;;;8.35;7.55;;;;;;;31.36;41.16;100002.91;5057150;28;20028;-62
2022/08/06 10:52:11;;;;;;;8.82;7.93;;;;;;;31.46;41.70;100008.16;5081735;28;20032;-61
2022/08/06 10:54:37;;;;;;;12.30;8.00;;;;;;;31.61;41.81;100011.91;5072736;28;20016;-61
2022/08/06 10:57:03;;;;;;;10.48;7.88;;;;;;;31.61;42.36;100005.72;5063576;28;20029;-61
2022/08/06 10:59:28;;;;;;;8.88;7.63;;;;;;;31.24;41.94;99998.81;5064808;28;20047;-61
2022/08/06 11:02:40;;;;;;;8.68;7.70;;;;;;;31.26;42.28;99991.50;5064855;28;20033;-61
2022/08/06 11:05:12;;;;;;;8.10;7.30;;;;;;;31.25;42.96;99985.28;5056187;28;20028;-61
2022/08/06 11:07:57;;;;;;;13.35;7.65;;;;;;;31.09;42.96;99999.41;5060385;28;20044;-62
2022/08/06 11:10:41;;;;;;;8.23;7.30;;;;;;;31.16;42.98;99988.94;5064963;28;20025;-61
2022/08/06 11:13:21;;;;;;;10.15;7.57;;;;;;;31.20;42.20;99982.25;5059163;28;20033;-61
2022/08/06 11:15:47;;;;;;;8.23;7.05;;;;;;;31.08;42.12;99970.97;5063295;28;20086;-62
2022/08/06 11:18:13;;;;;;;10.57;7.53;;;;;;;31.25;43.81;99981.78;5065049;28;20213;-61
2022/08/06 11:20:45;;;;;;;10.02;7.35;;;;;;;31.33;42.61;99969.25;5063173;28;20074;-61
2022/08/06 11:23:11;;;;;;;9.27;7.50;;;;;;;31.48;42.28;99976.69;5060712;28;20027;-62
2022/08/06 11:25:41;;;;;;;9.52;7.40;;;;;;;31.50;41.30;99978.19;5062036;28;20028;-62
2022/08/06 11:28:08;;;;;;;9.15;7.38;;;;;;;31.44;42.25;99968.16;5058199;28;20037;-61
2022/08/06 11:30:46;;;;;;;10.73;7.60;;;;;;;31.45;42.13;99960.94;5064161;28;20036;-60
2022/08/06 11:33:20;;;;;;;9.25;7.68;;;;;;;31.18;42.29;99972.72;5062646;28;20201;-60